sensor_id;sensor_type;location;lat;lon;timestamp;P1;durP1;ratioP1;P2;durP2;ratioP2
8007;SDS011;4049;49.468;11.200;2023-06-14T00:01:01;7.23;;;4.53;;
8007;SDS011;4049;49.468;11.200;2023-06-14T00:03:31;8.57;;;4.47;;
8007;SDS011;4049;49.468;11.200;2023-06-14T00:05:58;6.03;;;4.00;;
8007;SDS011;4049;49.468;11.200;2023-06-14T00:08:25;6.43;;;4.30;;
8007;SDS011;4049;49.468;11.200;2023-06-14T00:10:52;6.27;;;4.67;;
8007;SDS011;4049;49.468;11.200;2023-06-14T00:13:20;7.10;;;4.80;;
8007;SDS011;4049;49.468;11.200;2023-06-14T00:15:47;7.03;;;4.80;;
8007;SDS011;4049;49.468;11.200;2023-06-14T00:18:14;5.23;;;4.47;;
8007;SDS011;4049;49.468;11.200;2023-06-14T00:20:41;10.10;;;4.60;;
8007;SDS011;4049;49.468;11.200;2023-06-14T00:23:08;4.80;;;4.13;;
8007;SDS011;4049;49.468;11.200;2023-06-14T00:25:35;8.20;;;4.40;;
8007;SDS011;4049;49.468;11.200;2023-06-14T00:28:02;7.30;;;4.50;;
8007;SDS011;4049;49.468;11.200;2023-06-14T00:30:30;6.80;;;4.23;;
8007;SDS011;4049;49.468;11.200;2023-06-14T00:32:57;6.97;;;4.40;;
8007;SDS011;4049;49.468;11.200;2023-06-14T00:35:24;5.03;;;3.87;;
8007;SDS011;4049;49.468;11.200;2023-06-14T00:37:51;4.27;;;3.73;;
8007;SDS011;4049;49.468;11.200;2023-06-14T00:40:19;5.33;;;4.10;;
8007;SDS011;4049;49.468;11.200;2023-06-14T00:42:46;6.07;;;3.97;;
8007;SDS011;4049;49.468;11.200;2023-06-14T00:45:13;6.07;;;3.93;;
8007;SDS011;4049;49.468;11.200;2023-06-14T00:47:42;5.57;;;3.73;;
8007;SDS011;4049;49.468;11.200;2023-06-14T00:50:11;4.20;;;3.70;;
8007;SDS011;4049;49.468;11.200;2023-06-14T00:52:39;7.57;;;4.87;;
8007;SDS011;4049;49.468;11.200;2023-06-14T00:55:06;7.67;;;4.50;;
8007;SDS011;4049;49.468;11.200;2023-06-14T00:57:33;9.40;;;4.50;;
8007;SDS011;4049;49.468;11.200;2023-06-14T01:00:03;10.03;;;4.33;;
8007;SDS011;4049;49.468;11.200;2023-06-14T01:02:33;4.73;;;3.70;;
8007;SDS011;4049;49.468;11.200;2023-06-14T01:05:03;5.47;;;3.40;;
8007;SDS011;4049;49.468;11.200;2023-06-14T01:07:33;6.13;;;3.70;;
8007;SDS011;4049;49.468;11.200;2023-06-14T01:10:17;5.00;;;3.90;;
8007;SDS011;4049;49.468;11.200;2023-06-14T01:12:58;5.23;;;3.70;;
8007;SDS011;4049;49.468;11.200;2023-06-14T01:15:31;6.07;;;3.87;;
8007;SDS011;4049;49.468;11.200;2023-06-14T01:17:58;5.87;;;3.60;;
8007;SDS011;4049;49.468;11.200;2023-06-14T01:20:30;8.70;;;3.90;;
8007;SDS011;4049;49.468;11.200;2023-06-14T01:23:02;5.57;;;3.70;;
8007;SDS011;4049;49.468;11.200;2023-06-14T01:25:30;4.50;;;3.83;;
8007;SDS011;4049;49.468;11.200;2023-06-14T01:27:57;5.87;;;3.37;;
8007;SDS011;4049;49.468;11.200;2023-06-14T01:30:26;4.63;;;3.77;;
8007;SDS011;4049;49.468;11.200;2023-06-14T01:32:54;4.67;;;3.80;;
8007;SDS011;4049;49.468;11.200;2023-06-14T01:35:21;5.37;;;3.70;;
8007;SDS011;4049;49.468;11.200;2023-06-14T01:37:49;6.00;;;3.40;;
8007;SDS011;4049;49.468;11.200;2023-06-14T01:40:18;6.17;;;3.70;;
8007;SDS011;4049;49.468;11.200;2023-06-14T01:42:47;8.87;;;3.60;;
8007;SDS011;4049;49.468;11.200;2023-06-14T01:45:15;6.97;;;4.30;;
8007;SDS011;4049;49.468;11.200;2023-06-14T01:47:43;6.37;;;4.13;;
8007;SDS011;4049;49.468;11.200;2023-06-14T01:50:11;5.60;;;3.80;;
8007;SDS011;4049;49.468;11.200;2023-06-14T01:52:37;5.50;;;3.73;;
8007;SDS011;4049;49.468;11.200;2023-06-14T01:55:05;6.60;;;3.87;;
8007;SDS011;4049;49.468;11.200;2023-06-14T01:57:34;4.77;;;4.00;;
8007;SDS011;4049;49.468;11.200;2023-06-14T02:00:01;5.10;;;3.93;;
8007;SDS011;4049;49.468;11.200;2023-06-14T02:02:28;6.47;;;4.07;;
8007;SDS011;4049;49.468;11.200;2023-06-14T02:04:55;6.93;;;4.20;;
8007;SDS011;4049;49.468;11.200;2023-06-14T02:07:23;7.10;;;4.30;;
8007;SDS011;4049;49.468;11.200;2023-06-14T02:09:50;6.33;;;3.90;;
8007;SDS011;4049;49.468;11.200;2023-06-14T02:12:17;6.23;;;3.70;;
8007;SDS011;4049;49.468;11.200;2023-06-14T02:14:45;5.27;;;3.87;;
8007;SDS011;4049;49.468;11.200;2023-06-14T02:17:12;5.53;;;4.27;;
8007;SDS011;4049;49.468;11.200;2023-06-14T02:19:38;7.23;;;4.33;;
8007;SDS011;4049;49.468;11.200;2023-06-14T02:22:05;5.23;;;4.00;;
8007;SDS011;4049;49.468;11.200;2023-06-14T02:24:32;6.10;;;3.73;;
8007;SDS011;4049;49.468;11.200;2023-06-14T02:27:00;5.73;;;4.00;;
8007;SDS011;4049;49.468;11.200;2023-06-14T02:29:27;5.23;;;3.50;;
8007;SDS011;4049;49.468;11.200;2023-06-14T02:31:55;5.83;;;3.90;;
8007;SDS011;4049;49.468;11.200;2023-06-14T02:34:22;6.20;;;3.50;;
8007;SDS011;4049;49.468;11.200;2023-06-14T02:36:49;6.90;;;3.80;;
8007;SDS011;4049;49.468;11.200;2023-06-14T02:39:17;5.53;;;3.60;;
8007;SDS011;4049;49.468;11.200;2023-06-14T02:41:45;5.97;;;3.90;;
8007;SDS011;4049;49.468;11.200;2023-06-14T02:44:13;11.80;;;4.10;;
8007;SDS011;4049;49.468;11.200;2023-06-14T02:46:40;7.30;;;4.43;;
8007;SDS011;4049;49.468;11.200;2023-06-14T02:49:10;6.43;;;4.03;;
8007;SDS011;4049;49.468;11.200;2023-06-14T02:51:37;5.43;;;3.77;;
8007;SDS011;4049;49.468;11.200;2023-06-14T02:54:03;6.70;;;4.03;;
8007;SDS011;4049;49.468;11.200;2023-06-14T02:56:30;7.80;;;3.63;;
8007;SDS011;4049;49.468;11.200;2023-06-14T02:58:57;5.10;;;3.93;;
8007;SDS011;4049;49.468;11.200;2023-06-14T03:01:25;8.30;;;4.37;;
8007;SDS011;4049;49.468;11.200;2023-06-14T03:03:58;7.73;;;4.27;;
8007;SDS011;4049;49.468;11.200;2023-06-14T03:06:26;7.20;;;3.97;;
8007;SDS011;4049;49.468;11.200;2023-06-14T03:08:54;4.67;;;3.70;;
8007;SDS011;4049;49.468;11.200;2023-06-14T03:11:24;6.20;;;3.67;;
8007;SDS011;4049;49.468;11.200;2023-06-14T03:13:51;5.37;;;4.13;;
8007;SDS011;4049;49.468;11.200;2023-06-14T03:16:18;5.03;;;3.57;;
8007;SDS011;4049;49.468;11.200;2023-06-14T03:18:47;4.10;;;3.50;;
8007;SDS011;4049;49.468;11.200;2023-06-14T03:21:14;5.73;;;4.13;;
8007;SDS011;4049;49.468;11.200;2023-06-14T03:23:43;5.23;;;3.90;;
8007;SDS011;4049;49.468;11.200;2023-06-14T03:26:10;6.60;;;4.03;;
8007;SDS011;4049;49.468;11.200;2023-06-14T03:28:40;5.00;;;4.00;;
8007;SDS011;4049;49.468;11.200;2023-06-14T03:31:06;5.27;;;4.17;;
8007;SDS011;4049;49.468;11.200;2023-06-14T03:33:33;5.47;;;4.10;;
8007;SDS011;4049;49.468;11.200;2023-06-14T03:36:01;7.70;;;4.73;;
8007;SDS011;4049;49.468;11.200;2023-06-14T03:38:28;5.43;;;4.47;;
8007;SDS011;4049;49.468;11.200;2023-06-14T03:40:56;6.80;;;4.43;;
8007;SDS011;4049;49.468;11.200;2023-06-14T03:43:23;4.90;;;4.20;;
8007;SDS011;4049;49.468;11.200;2023-06-14T03:45:50;6.43;;;4.63;;
8007;SDS011;4049;49.468;11.200;2023-06-14T03:48:17;6.90;;;4.30;;
8007;SDS011;4049;49.468;11.200;2023-06-14T03:50:44;6.80;;;4.57;;
8007;SDS011;4049;49.468;11.200;2023-06-14T03:53:11;6.90;;;4.37;;
8007;SDS011;4049;49.468;11.200;2023-06-14T03:55:38;6.03;;;4.47;;
8007;SDS011;4049;49.468;11.200;2023-06-14T03:58:06;5.33;;;4.10;;
8007;SDS011;4049;49.468;11.200;2023-06-14T04:00:33;5.70;;;4.00;;
8007;SDS011;4049;49.468;11.200;2023-06-14T04:03:00;9.00;;;4.93;;
8007;SDS011;4049;49.468;11.200;2023-06-14T04:05:29;7.50;;;4.70;;
8007;SDS011;4049;49.468;11.200;2023-06-14T04:07:56;8.50;;;4.97;;
8007;SDS011;4049;49.468;11.200;2023-06-14T04:10:25;7.47;;;4.40;;
8007;SDS011;4049;49.468;11.200;2023-06-14T04:12:52;7.00;;;4.57;;
8007;SDS011;4049;49.468;11.200;2023-06-14T04:15:20;9.10;;;4.17;;
8007;SDS011;4049;49.468;11.200;2023-06-14T04:17:47;6.67;;;4.37;;
8007;SDS011;4049;49.468;11.200;2023-06-14T04:20:14;9.03;;;4.40;;
8007;SDS011;4049;49.468;11.200;2023-06-14T04:22:42;5.20;;;4.20;;
8007;SDS011;4049;49.468;11.200;2023-06-14T04:25:08;5.13;;;4.63;;
8007;SDS011;4049;49.468;11.200;2023-06-14T04:27:37;7.13;;;4.43;;
8007;SDS011;4049;49.468;11.200;2023-06-14T04:30:05;4.97;;;3.87;;
8007;SDS011;4049;49.468;11.200;2023-06-14T04:32:34;7.17;;;4.60;;
8007;SDS011;4049;49.468;11.200;2023-06-14T04:35:04;10.70;;;4.60;;
8007;SDS011;4049;49.468;11.200;2023-06-14T04:37:31;6.20;;;4.60;;
8007;SDS011;4049;49.468;11.200;2023-06-14T04:39:59;5.47;;;4.57;;
8007;SDS011;4049;49.468;11.200;2023-06-14T04:42:26;7.60;;;4.70;;
8007;SDS011;4049;49.468;11.200;2023-06-14T04:44:56;7.33;;;4.60;;
8007;SDS011;4049;49.468;11.200;2023-06-14T04:47:23;6.87;;;4.53;;
8007;SDS011;4049;49.468;11.200;2023-06-14T04:49:56;5.50;;;4.20;;
8007;SDS011;4049;49.468;11.200;2023-06-14T04:52:23;7.03;;;4.90;;
8007;SDS011;4049;49.468;11.200;2023-06-14T04:54:51;8.63;;;5.13;;
8007;SDS011;4049;49.468;11.200;2023-06-14T04:57:19;5.73;;;4.30;;
8007;SDS011;4049;49.468;11.200;2023-06-14T04:59:47;6.20;;;4.47;;
8007;SDS011;4049;49.468;11.200;2023-06-14T05:02:16;6.03;;;4.47;;
8007;SDS011;4049;49.468;11.200;2023-06-14T05:04:43;6.97;;;4.67;;
8007;SDS011;4049;49.468;11.200;2023-06-14T05:07:14;7.33;;;4.30;;
8007;SDS011;4049;49.468;11.200;2023-06-14T05:09:40;8.83;;;5.53;;
8007;SDS011;4049;49.468;11.200;2023-06-14T05:12:07;5.87;;;4.70;;
8007;SDS011;4049;49.468;11.200;2023-06-14T05:14:34;6.10;;;4.70;;
8007;SDS011;4049;49.468;11.200;2023-06-14T05:17:01;9.17;;;5.23;;
8007;SDS011;4049;49.468;11.200;2023-06-14T05:19:28;5.30;;;4.53;;
8007;SDS011;4049;49.468;11.200;2023-06-14T05:21:55;7.83;;;4.43;;
8007;SDS011;4049;49.468;11.200;2023-06-14T05:24:23;9.40;;;4.30;;
8007;SDS011;4049;49.468;11.200;2023-06-14T05:26:50;6.90;;;4.07;;
8007;SDS011;4049;49.468;11.200;2023-06-14T05:29:17;5.40;;;4.23;;
8007;SDS011;4049;49.468;11.200;2023-06-14T05:31:44;7.17;;;4.60;;
8007;SDS011;4049;49.468;11.200;2023-06-14T05:34:10;9.67;;;4.40;;
8007;SDS011;4049;49.468;11.200;2023-06-14T05:36:37;5.87;;;4.10;;
8007;SDS011;4049;49.468;11.200;2023-06-14T05:39:04;5.60;;;4.73;;
8007;SDS011;4049;49.468;11.200;2023-06-14T05:41:33;7.37;;;4.77;;
8007;SDS011;4049;49.468;11.200;2023-06-14T05:44:00;6.97;;;4.40;;
8007;SDS011;4049;49.468;11.200;2023-06-14T05:46:27;5.90;;;4.07;;
8007;SDS011;4049;49.468;11.200;2023-06-14T05:48:54;5.23;;;4.43;;
8007;SDS011;4049;49.468;11.200;2023-06-14T05:51:22;5.53;;;4.30;;
8007;SDS011;4049;49.468;11.200;2023-06-14T05:53:50;5.90;;;4.20;;
8007;SDS011;4049;49.468;11.200;2023-06-14T05:56:17;6.43;;;4.20;;
8007;SDS011;4049;49.468;11.200;2023-06-14T05:58:45;6.40;;;4.13;;
8007;SDS011;4049;49.468;11.200;2023-06-14T06:01:12;5.67;;;4.43;;
8007;SDS011;4049;49.468;11.200;2023-06-14T06:03:40;6.67;;;4.20;;
8007;SDS011;4049;49.468;11.200;2023-06-14T06:06:10;5.27;;;3.93;;
8007;SDS011;4049;49.468;11.200;2023-06-14T06:08:37;6.67;;;4.30;;
8007;SDS011;4049;49.468;11.200;2023-06-14T06:11:05;5.27;;;3.90;;
8007;SDS011;4049;49.468;11.200;2023-06-14T06:13:32;6.20;;;4.07;;
8007;SDS011;4049;49.468;11.200;2023-06-14T06:16:01;5.10;;;3.90;;
8007;SDS011;4049;49.468;11.200;2023-06-14T06:18:28;6.13;;;3.87;;
8007;SDS011;4049;49.468;11.200;2023-06-14T06:20:55;8.23;;;4.90;;
8007;SDS011;4049;49.468;11.200;2023-06-14T06:23:22;5.57;;;4.27;;
8007;SDS011;4049;49.468;11.200;2023-06-14T06:25:49;6.13;;;3.77;;
8007;SDS011;4049;49.468;11.200;2023-06-14T06:28:17;4.33;;;3.43;;
8007;SDS011;4049;49.468;11.200;2023-06-14T06:30:43;4.67;;;3.73;;
8007;SDS011;4049;49.468;11.200;2023-06-14T06:33:12;7.03;;;4.13;;
8007;SDS011;4049;49.468;11.200;2023-06-14T06:35:39;7.23;;;4.00;;
8007;SDS011;4049;49.468;11.200;2023-06-14T06:38:06;4.40;;;3.70;;
8007;SDS011;4049;49.468;11.200;2023-06-14T06:40:33;5.63;;;4.27;;
8007;SDS011;4049;49.468;11.200;2023-06-14T06:43:01;6.03;;;4.23;;
8007;SDS011;4049;49.468;11.200;2023-06-14T06:45:28;4.97;;;3.73;;
8007;SDS011;4049;49.468;11.200;2023-06-14T06:47:55;4.97;;;3.67;;
8007;SDS011;4049;49.468;11.200;2023-06-14T06:50:24;4.77;;;3.70;;
8007;SDS011;4049;49.468;11.200;2023-06-14T06:52:51;5.87;;;3.73;;
8007;SDS011;4049;49.468;11.200;2023-06-14T06:55:18;5.53;;;3.73;;
8007;SDS011;4049;49.468;11.200;2023-06-14T06:57:47;5.77;;;3.97;;
8007;SDS011;4049;49.468;11.200;2023-06-14T07:00:15;6.10;;;3.60;;
8007;SDS011;4049;49.468;11.200;2023-06-14T07:02:42;6.23;;;3.80;;
8007;SDS011;4049;49.468;11.200;2023-06-14T07:05:09;4.67;;;3.80;;
8007;SDS011;4049;49.468;11.200;2023-06-14T07:07:37;4.70;;;3.70;;
8007;SDS011;4049;49.468;11.200;2023-06-14T07:10:04;5.10;;;3.80;;
8007;SDS011;4049;49.468;11.200;2023-06-14T07:12:32;5.13;;;4.07;;
8007;SDS011;4049;49.468;11.200;2023-06-14T07:15:04;4.80;;;3.70;;
8007;SDS011;4049;49.468;11.200;2023-06-14T07:17:32;5.67;;;3.70;;
8007;SDS011;4049;49.468;11.200;2023-06-14T07:20:01;4.33;;;3.63;;
8007;SDS011;4049;49.468;11.200;2023-06-14T07:22:38;4.33;;;3.43;;
8007;SDS011;4049;49.468;11.200;2023-06-14T07:25:07;5.80;;;4.13;;
8007;SDS011;4049;49.468;11.200;2023-06-14T07:27:34;4.43;;;3.63;;
8007;SDS011;4049;49.468;11.200;2023-06-14T07:30:01;3.53;;;3.23;;
8007;SDS011;4049;49.468;11.200;2023-06-14T07:32:28;5.33;;;3.80;;
8007;SDS011;4049;49.468;11.200;2023-06-14T07:34:55;5.83;;;3.80;;
8007;SDS011;4049;49.468;11.200;2023-06-14T07:37:22;4.57;;;3.93;;
8007;SDS011;4049;49.468;11.200;2023-06-14T07:39:50;5.43;;;3.77;;
8007;SDS011;4049;49.468;11.200;2023-06-14T07:42:17;5.20;;;3.43;;
8007;SDS011;4049;49.468;11.200;2023-06-14T07:44:43;4.67;;;3.87;;
8007;SDS011;4049;49.468;11.200;2023-06-14T07:47:10;4.20;;;3.40;;
8007;SDS011;4049;49.468;11.200;2023-06-14T07:49:37;3.67;;;2.83;;
8007;SDS011;4049;49.468;11.200;2023-06-14T07:52:04;5.10;;;3.57;;
8007;SDS011;4049;49.468;11.200;2023-06-14T07:54:32;3.87;;;3.23;;
8007;SDS011;4049;49.468;11.200;2023-06-14T07:57:00;7.30;;;3.63;;
8007;SDS011;4049;49.468;11.200;2023-06-14T07:59:27;4.03;;;3.40;;
8007;SDS011;4049;49.468;11.200;2023-06-14T08:01:54;3.83;;;3.40;;
8007;SDS011;4049;49.468;11.200;2023-06-14T08:04:21;3.87;;;3.27;;
8007;SDS011;4049;49.468;11.200;2023-06-14T08:06:48;4.47;;;3.60;;
8007;SDS011;4049;49.468;11.200;2023-06-14T08:09:15;3.90;;;3.50;;
8007;SDS011;4049;49.468;11.200;2023-06-14T08:11:42;5.63;;;3.73;;
8007;SDS011;4049;49.468;11.200;2023-06-14T08:14:10;5.17;;;3.67;;
8007;SDS011;4049;49.468;11.200;2023-06-14T08:16:37;4.47;;;3.57;;
8007;SDS011;4049;49.468;11.200;2023-06-14T08:19:04;5.57;;;3.67;;
8007;SDS011;4049;49.468;11.200;2023-06-14T08:21:31;5.40;;;4.03;;
8007;SDS011;4049;49.468;11.200;2023-06-14T08:23:58;6.00;;;3.67;;
8007;SDS011;4049;49.468;11.200;2023-06-14T08:26:25;5.80;;;3.73;;
8007;SDS011;4049;49.468;11.200;2023-06-14T08:28:54;4.50;;;3.30;;
8007;SDS011;4049;49.468;11.200;2023-06-14T08:31:23;4.53;;;3.47;;
8007;SDS011;4049;49.468;11.200;2023-06-14T08:33:50;4.00;;;3.60;;
8007;SDS011;4049;49.468;11.200;2023-06-14T08:36:17;7.63;;;4.10;;
8007;SDS011;4049;49.468;11.200;2023-06-14T08:38:44;5.87;;;4.03;;
8007;SDS011;4049;49.468;11.200;2023-06-14T08:41:11;5.87;;;4.73;;
8007;SDS011;4049;49.468;11.200;2023-06-14T08:43:39;5.90;;;3.70;;
8007;SDS011;4049;49.468;11.200;2023-06-14T08:46:06;8.77;;;4.17;;
8007;SDS011;4049;49.468;11.200;2023-06-14T08:48:38;4.70;;;3.90;;
8007;SDS011;4049;49.468;11.200;2023-06-14T08:51:06;5.40;;;3.83;;
8007;SDS011;4049;49.468;11.200;2023-06-14T08:53:35;5.63;;;4.00;;
8007;SDS011;4049;49.468;11.200;2023-06-14T08:56:07;4.53;;;3.47;;
8007;SDS011;4049;49.468;11.200;2023-06-14T08:58:38;7.87;;;4.27;;
8007;SDS011;4049;49.468;11.200;2023-06-14T09:01:08;4.10;;;3.60;;
8007;SDS011;4049;49.468;11.200;2023-06-14T09:03:38;4.00;;;3.50;;
8007;SDS011;4049;49.468;11.200;2023-06-14T09:06:05;4.33;;;3.90;;
8007;SDS011;4049;49.468;11.200;2023-06-14T09:08:33;5.13;;;3.70;;
8007;SDS011;4049;49.468;11.200;2023-06-14T09:11:01;5.57;;;3.60;;
8007;SDS011;4049;49.468;11.200;2023-06-14T09:13:28;7.47;;;3.40;;
8007;SDS011;4049;49.468;11.200;2023-06-14T09:15:54;6.43;;;3.97;;
8007;SDS011;4049;49.468;11.200;2023-06-14T09:18:21;5.70;;;3.70;;
8007;SDS011;4049;49.468;11.200;2023-06-14T09:21:00;4.70;;;3.73;;
8007;SDS011;4049;49.468;11.200;2023-06-14T09:23:27;5.70;;;3.77;;
8007;SDS011;4049;49.468;11.200;2023-06-14T09:25:54;3.57;;;3.20;;
8007;SDS011;4049;49.468;11.200;2023-06-14T09:28:26;4.10;;;3.70;;
8007;SDS011;4049;49.468;11.200;2023-06-14T09:30:53;4.87;;;3.73;;
8007;SDS011;4049;49.468;11.200;2023-06-14T09:33:20;6.00;;;3.70;;
8007;SDS011;4049;49.468;11.200;2023-06-14T09:35:50;6.43;;;3.93;;
8007;SDS011;4049;49.468;11.200;2023-06-14T09:38:19;4.70;;;3.85;;
8007;SDS011;4049;49.468;11.200;2023-06-14T09:40:45;4.75;;;3.72;;
8007;SDS011;4049;49.468;11.200;2023-06-14T09:43:12;4.20;;;3.80;;
8007;SDS011;4049;49.468;11.200;2023-06-14T09:45:39;4.55;;;3.80;;
8007;SDS011;4049;49.468;11.200;2023-06-14T09:48:10;4.32;;;3.28;;
8007;SDS011;4049;49.468;11.200;2023-06-14T09:50:43;4.53;;;3.55;;
8007;SDS011;4049;49.468;11.200;2023-06-14T09:53:12;4.07;;;3.50;;
8007;SDS011;4049;49.468;11.200;2023-06-14T09:55:41;3.53;;;3.23;;
8007;SDS011;4049;49.468;11.200;2023-06-14T09:58:09;4.80;;;3.53;;
8007;SDS011;4049;49.468;11.200;2023-06-14T10:00:37;4.70;;;3.40;;
8007;SDS011;4049;49.468;11.200;2023-06-14T10:03:06;4.20;;;3.63;;
8007;SDS011;4049;49.468;11.200;2023-06-14T10:05:39;4.87;;;4.00;;
8007;SDS011;4049;49.468;11.200;2023-06-14T10:08:10;5.03;;;3.70;;
8007;SDS011;4049;49.468;11.200;2023-06-14T10:10:42;4.90;;;3.88;;
8007;SDS011;4049;49.468;11.200;2023-06-14T10:13:09;7.07;;;3.30;;
8007;SDS011;4049;49.468;11.200;2023-06-14T10:15:38;4.07;;;3.60;;
8007;SDS011;4049;49.468;11.200;2023-06-14T10:18:14;4.93;;;3.90;;
8007;SDS011;4049;49.468;11.200;2023-06-14T10:20:52;4.13;;;3.63;;
8007;SDS011;4049;49.468;11.200;2023-06-14T10:23:24;5.47;;;3.53;;
8007;SDS011;4049;49.468;11.200;2023-06-14T10:25:56;4.10;;;3.70;;
8007;SDS011;4049;49.468;11.200;2023-06-14T10:28:25;4.30;;;3.20;;
8007;SDS011;4049;49.468;11.200;2023-06-14T10:31:04;3.85;;;3.22;;
8007;SDS011;4049;49.468;11.200;2023-06-14T10:33:32;6.97;;;3.70;;
8007;SDS011;4049;49.468;11.200;2023-06-14T10:36:09;4.78;;;3.42;;
8007;SDS011;4049;49.468;11.200;2023-06-14T10:38:56;5.38;;;3.63;;
8007;SDS011;4049;49.468;11.200;2023-06-14T10:41:25;3.85;;;3.25;;
8007;SDS011;4049;49.468;11.200;2023-06-14T10:44:04;5.80;;;3.80;;
8007;SDS011;4049;49.468;11.200;2023-06-14T10:46:56;4.80;;;3.58;;
8007;SDS011;4049;49.468;11.200;2023-06-14T10:49:36;4.40;;;3.30;;
8007;SDS011;4049;49.468;11.200;2023-06-14T10:52:08;5.47;;;3.50;;
8007;SDS011;4049;49.468;11.200;2023-06-14T10:54:54;5.00;;;3.85;;
8007;SDS011;4049;49.468;11.200;2023-06-14T10:57:23;4.00;;;3.47;;
8007;SDS011;4049;49.468;11.200;2023-06-14T10:59:50;4.85;;;3.53;;
8007;SDS011;4049;49.468;11.200;2023-06-14T11:02:23;5.03;;;3.60;;
8007;SDS011;4049;49.468;11.200;2023-06-14T11:05:10;3.60;;;3.30;;
8007;SDS011;4049;49.468;11.200;2023-06-14T11:07:45;3.88;;;3.42;;
8007;SDS011;4049;49.468;11.200;2023-06-14T11:10:24;3.70;;;3.30;;
8007;SDS011;4049;49.468;11.200;2023-06-14T11:13:00;5.05;;;3.33;;
8007;SDS011;4049;49.468;11.200;2023-06-14T11:15:28;3.92;;;3.25;;
8007;SDS011;4049;49.468;11.200;2023-06-14T11:17:55;4.00;;;3.60;;
8007;SDS011;4049;49.468;11.200;2023-06-14T11:20:24;4.53;;;3.65;;
8007;SDS011;4049;49.468;11.200;2023-06-14T11:22:52;5.70;;;3.65;;
8007;SDS011;4049;49.468;11.200;2023-06-14T11:25:19;3.78;;;3.05;;
8007;SDS011;4049;49.468;11.200;2023-06-14T11:27:46;4.35;;;3.67;;
8007;SDS011;4049;49.468;11.200;2023-06-14T11:30:16;4.57;;;3.30;;
8007;SDS011;4049;49.468;11.200;2023-06-14T11:32:45;5.90;;;3.38;;
8007;SDS011;4049;49.468;11.200;2023-06-14T11:35:13;3.63;;;3.30;;
8007;SDS011;4049;49.468;11.200;2023-06-14T11:37:42;4.00;;;3.17;;
8007;SDS011;4049;49.468;11.200;2023-06-14T11:40:09;5.15;;;3.47;;
8007;SDS011;4049;49.468;11.200;2023-06-14T11:42:38;4.80;;;3.50;;
8007;SDS011;4049;49.468;11.200;2023-06-14T11:45:07;6.68;;;3.67;;
8007;SDS011;4049;49.468;11.200;2023-06-14T11:47:37;4.78;;;3.80;;
8007;SDS011;4049;49.468;11.200;2023-06-14T11:50:06;4.50;;;3.20;;
8007;SDS011;4049;49.468;11.200;2023-06-14T11:52:35;5.97;;;3.70;;
8007;SDS011;4049;49.468;11.200;2023-06-14T11:55:03;5.10;;;3.70;;
8007;SDS011;4049;49.468;11.200;2023-06-14T11:57:33;3.78;;;2.90;;
8007;SDS011;4049;49.468;11.200;2023-06-14T12:00:02;4.10;;;3.30;;
8007;SDS011;4049;49.468;11.200;2023-06-14T12:02:31;4.10;;;3.70;;
8007;SDS011;4049;49.468;11.200;2023-06-14T12:05:03;4.28;;;3.50;;
8007;SDS011;4049;49.468;11.200;2023-06-14T12:07:33;3.97;;;3.28;;
8007;SDS011;4049;49.468;11.200;2023-06-14T12:10:04;6.35;;;3.20;;
8007;SDS011;4049;49.468;11.200;2023-06-14T12:12:34;3.67;;;3.28;;
8007;SDS011;4049;49.468;11.200;2023-06-14T12:15:02;6.35;;;3.00;;
8007;SDS011;4049;49.468;11.200;2023-06-14T12:17:31;3.75;;;2.97;;
8007;SDS011;4049;49.468;11.200;2023-06-14T12:20:04;4.68;;;3.03;;
8007;SDS011;4049;49.468;11.200;2023-06-14T12:22:35;4.50;;;3.28;;
8007;SDS011;4049;49.468;11.200;2023-06-14T12:25:01;4.28;;;2.80;;
8007;SDS011;4049;49.468;11.200;2023-06-14T12:27:29;3.55;;;2.83;;
8007;SDS011;4049;49.468;11.200;2023-06-14T12:29:59;3.53;;;2.92;;
8007;SDS011;4049;49.468;11.200;2023-06-14T12:32:27;3.85;;;3.00;;
8007;SDS011;4049;49.468;11.200;2023-06-14T12:34:54;3.30;;;3.00;;
8007;SDS011;4049;49.468;11.200;2023-06-14T12:37:23;3.42;;;3.00;;
8007;SDS011;4049;49.468;11.200;2023-06-14T12:39:50;4.38;;;3.10;;
8007;SDS011;4049;49.468;11.200;2023-06-14T12:42:17;3.63;;;3.15;;
8007;SDS011;4049;49.468;11.200;2023-06-14T12:44:44;3.22;;;2.92;;
8007;SDS011;4049;49.468;11.200;2023-06-14T12:47:10;4.45;;;2.90;;
8007;SDS011;4049;49.468;11.200;2023-06-14T12:49:40;4.22;;;2.95;;
8007;SDS011;4049;49.468;11.200;2023-06-14T12:52:08;4.35;;;3.45;;
8007;SDS011;4049;49.468;11.200;2023-06-14T12:54:36;4.68;;;3.58;;
8007;SDS011;4049;49.468;11.200;2023-06-14T12:57:04;4.07;;;2.85;;
8007;SDS011;4049;49.468;11.200;2023-06-14T12:59:31;4.20;;;3.05;;
8007;SDS011;4049;49.468;11.200;2023-06-14T13:01:59;5.05;;;3.40;;
8007;SDS011;4049;49.468;11.200;2023-06-14T13:04:37;3.55;;;3.00;;
8007;SDS011;4049;49.468;11.200;2023-06-14T13:07:04;3.55;;;3.00;;
8007;SDS011;4049;49.468;11.200;2023-06-14T13:09:31;5.25;;;3.45;;
8007;SDS011;4049;49.468;11.200;2023-06-14T13:11:59;4.03;;;3.33;;
8007;SDS011;4049;49.468;11.200;2023-06-14T13:14:26;3.45;;;3.15;;
8007;SDS011;4049;49.468;11.200;2023-06-14T13:16:53;3.70;;;3.40;;
8007;SDS011;4049;49.468;11.200;2023-06-14T13:19:20;6.55;;;3.08;;
8007;SDS011;4049;49.468;11.200;2023-06-14T13:21:47;3.78;;;3.25;;
8007;SDS011;4049;49.468;11.200;2023-06-14T13:24:15;4.07;;;3.13;;
8007;SDS011;4049;49.468;11.200;2023-06-14T13:26:42;4.93;;;3.40;;
8007;SDS011;4049;49.468;11.200;2023-06-14T13:29:10;4.47;;;3.00;;
8007;SDS011;4049;49.468;11.200;2023-06-14T13:31:37;4.18;;;3.10;;
8007;SDS011;4049;49.468;11.200;2023-06-14T13:34:04;3.50;;;3.20;;
8007;SDS011;4049;49.468;11.200;2023-06-14T13:36:31;3.40;;;3.10;;
8007;SDS011;4049;49.468;11.200;2023-06-14T13:38:58;3.67;;;3.10;;
8007;SDS011;4049;49.468;11.200;2023-06-14T13:41:25;3.97;;;3.13;;
8007;SDS011;4049;49.468;11.200;2023-06-14T13:43:56;5.38;;;3.63;;
8007;SDS011;4049;49.468;11.200;2023-06-14T13:46:25;3.88;;;2.97;;
8007;SDS011;4049;49.468;11.200;2023-06-14T13:48:52;3.20;;;2.90;;
8007;SDS011;4049;49.468;11.200;2023-06-14T13:51:19;3.97;;;3.33;;
8007;SDS011;4049;49.468;11.200;2023-06-14T13:53:46;3.28;;;2.92;;
8007;SDS011;4049;49.468;11.200;2023-06-14T13:56:13;3.10;;;2.80;;
8007;SDS011;4049;49.468;11.200;2023-06-14T13:58:40;3.95;;;3.25;;
8007;SDS011;4049;49.468;11.200;2023-06-14T14:01:07;3.00;;;2.70;;
8007;SDS011;4049;49.468;11.200;2023-06-14T14:03:36;4.03;;;2.92;;
8007;SDS011;4049;49.468;11.200;2023-06-14T14:06:03;3.80;;;3.05;;
8007;SDS011;4049;49.468;11.200;2023-06-14T14:08:30;3.20;;;2.80;;
8007;SDS011;4049;49.468;11.200;2023-06-14T14:10:58;3.85;;;2.83;;
8007;SDS011;4049;49.468;11.200;2023-06-14T14:13:24;3.50;;;3.10;;
8007;SDS011;4049;49.468;11.200;2023-06-14T14:15:51;5.13;;;3.38;;
8007;SDS011;4049;49.468;11.200;2023-06-14T14:18:19;3.75;;;2.80;;
8007;SDS011;4049;49.468;11.200;2023-06-14T14:20:48;3.22;;;2.90;;
8007;SDS011;4049;49.468;11.200;2023-06-14T14:23:15;4.30;;;3.20;;
8007;SDS011;4049;49.468;11.200;2023-06-14T14:25:42;3.75;;;3.10;;
8007;SDS011;4049;49.468;11.200;2023-06-14T14:28:09;3.95;;;2.92;;
8007;SDS011;4049;49.468;11.200;2023-06-14T14:30:36;4.85;;;3.53;;
8007;SDS011;4049;49.468;11.200;2023-06-14T14:33:04;3.35;;;2.78;;
8007;SDS011;4049;49.468;11.200;2023-06-14T14:35:32;3.97;;;2.92;;
8007;SDS011;4049;49.468;11.200;2023-06-14T14:38:00;4.30;;;3.03;;
8007;SDS011;4049;49.468;11.200;2023-06-14T14:40:28;3.58;;;3.15;;
8007;SDS011;4049;49.468;11.200;2023-06-14T14:42:55;4.95;;;3.58;;
8007;SDS011;4049;49.468;11.200;2023-06-14T14:45:22;3.10;;;2.80;;
8007;SDS011;4049;49.468;11.200;2023-06-14T14:47:49;4.70;;;3.10;;
8007;SDS011;4049;49.468;11.200;2023-06-14T14:50:15;4.55;;;3.08;;
8007;SDS011;4049;49.468;11.200;2023-06-14T14:52:42;5.93;;;3.08;;
8007;SDS011;4049;49.468;11.200;2023-06-14T14:55:11;4.43;;;3.30;;
8007;SDS011;4049;49.468;11.200;2023-06-14T14:57:38;3.88;;;2.90;;
8007;SDS011;4049;49.468;11.200;2023-06-14T15:00:05;4.38;;;3.08;;
8007;SDS011;4049;49.468;11.200;2023-06-14T15:02:33;4.30;;;3.10;;
8007;SDS011;4049;49.468;11.200;2023-06-14T15:05:00;4.55;;;3.20;;
8007;SDS011;4049;49.468;11.200;2023-06-14T15:07:27;3.08;;;2.78;;